sensor_id;sensor_type;location;lat;lon;timestamp;pressure;altitude;pressure_sealevel;temperature;humidity
12215;BME280;6170;42.206;24.142;2022-10-16T00:01:06;99579.50;;;11.44;77.93
12215;BME280;6170;42.206;24.142;2022-10-16T00:03:33;99574.69;;;11.39;77.05
12215;BME280;6170;42.206;24.142;2022-10-16T00:06:01;99584.16;;;11.35;77.90
12215;BME280;6170;42.206;24.142;2022-10-16T00:08:28;99591.00;;;11.23;78.53
12215;BME280;6170;42.206;24.142;2022-10-16T00:11:00;99583.88;;;11.15;78.33
12215;BME280;6170;42.206;24.142;2022-10-16T00:13:29;99587.41;;;11.16;78.06
12215;BME280;6170;42.206;24.142;2022-10-16T00:15:58;99595.81;;;11.27;77.70
12215;BME280;6170;42.206;24.142;2022-10-16T00:18:25;99591.19;;;11.21;77.58
12215;BME280;6170;42.206;24.142;2022-10-16T00:20:53;99585.81;;;11.07;77.22
12215;BME280;6170;42.206;24.142;2022-10-16T00:23:21;99594.44;;;11.17;77.63
12215;BME280;6170;42.206;24.142;2022-10-16T00:25:55;99591.56;;;11.18;77.60
12215;BME280;6170;42.206;24.142;2022-10-16T00:28:22;99587.03;;;11.04;77.39
12215;BME280;6170;42.206;24.142;2022-10-16T00:30:51;99595.38;;;10.95;77.92
12215;BME280;6170;42.206;24.142;2022-10-16T00:33:19;99594.06;;;11.05;77.95
12215;BME280;6170;42.206;24.142;2022-10-16T00:35:46;99603.88;;;10.98;78.07
12215;BME280;6170;42.206;24.142;2022-10-16T00:38:13;99610.72;;;11.01;77.50
12215;BME280;6170;42.206;24.142;2022-10-16T00:40:41;99617.66;;;10.95;78.06
12215;BME280;6170;42.206;24.142;2022-10-16T00:43:12;99627.72;;;10.93;77.60
12215;BME280;6170;42.206;24.142;2022-10-16T00:45:41;99613.94;;;10.81;77.57
12215;BME280;6170;42.206;24.142;2022-10-16T00:48:12;99617.84;;;10.79;77.57
12215;BME280;6170;42.206;24.142;2022-10-16T00:50:40;99611.34;;;10.73;77.99
12215;BME280;6170;42.206;24.142;2022-10-16T00:53:10;99620.03;;;10.61;78.73
12215;BME280;6170;42.206;24.142;2022-10-16T00:55:38;99630.66;;;10.69;79.05
12215;BME280;6170;42.206;24.142;2022-10-16T00:58:05;99634.56;;;10.66;78.76
12215;BME280;6170;42.206;24.142;2022-10-16T01:00:32;99645.81;;;10.62;78.50
12215;BME280;6170;42.206;24.142;2022-10-16T01:03:00;99640.28;;;10.78;78.25
12215;BME280;6170;42.206;24.142;2022-10-16T01:05:33;99648.41;;;10.70;78.25
12215;BME280;6170;42.206;24.142;2022-10-16T01:08:08;99652.09;;;10.69;78.05
12215;BME280;6170;42.206;24.142;2022-10-16T01:10:41;99649.78;;;10.66;78.00
12215;BME280;6170;42.206;24.142;2022-10-16T01:13:18;99644.34;;;10.74;77.77
12215;BME280;6170;42.206;24.142;2022-10-16T01:15:52;99635.19;;;10.68;77.98
12215;BME280;6170;42.206;24.142;2022-10-16T01:18:25;99640.25;;;10.63;77.89
12215;BME280;6170;42.206;24.142;2022-10-16T01:21:02;99647.09;;;10.28;79.29
12215;BME280;6170;42.206;24.142;2022-10-16T01:23:48;99644.72;;;10.33;79.10
12215;BME280;6170;42.206;24.142;2022-10-16T01:26:29;99651.84;;;10.41;78.81
12215;BME280;6170;42.206;24.142;2022-10-16T01:29:03;99648.44;;;10.47;78.75
12215;BME280;6170;42.206;24.142;2022-10-16T01:31:35;99659.47;;;10.52;78.48
12215;BME280;6170;42.206;24.142;2022-10-16T01:34:06;99658.56;;;10.60;78.73
12215;BME280;6170;42.206;24.142;2022-10-16T01:36:38;99674.38;;;10.69;78.22
12215;BME280;6170;42.206;24.142;2022-10-16T01:39:09;99656.00;;;10.44;78.37
12215;BME280;6170;42.206;24.142;2022-10-16T01:41:40;99658.41;;;10.39;78.36
12215;BME280;6170;42.206;24.142;2022-10-16T01:44:11;99655.53;;;10.40;78.53
12215;BME280;6170;42.206;24.142;2022-10-16T01:46:43;99651.28;;;10.46;78.45
12215;BME280;6170;42.206;24.142;2022-10-16T01:49:13;99652.50;;;10.20;79.32
12215;BME280;6170;42.206;24.142;2022-10-16T01:51:41;99649.75;;;10.28;79.18
12215;BME280;6170;42.206;24.142;2022-10-16T01:54:11;99651.19;;;10.16;79.13
12215;BME280;6170;42.206;24.142;2022-10-16T01:56:41;99650.47;;;9.91;79.91
12215;BME280;6170;42.206;24.142;2022-10-16T01:59:13;99652.88;;;10.17;79.38
12215;BME280;6170;42.206;24.142;2022-10-16T02:01:44;99652.44;;;10.28;79.53
12215;BME280;6170;42.206;24.142;2022-10-16T02:04:15;99652.59;;;10.27;79.25
12215;BME280;6170;42.206;24.142;2022-10-16T02:06:44;99652.72;;;10.11;79.08
12215;BME280;6170;42.206;24.142;2022-10-16T02:09:11;99656.22;;;10.11;79.40
12215;BME280;6170;42.206;24.142;2022-10-16T02:11:38;99651.44;;;10.29;79.12
12215;BME280;6170;42.206;24.142;2022-10-16T02:14:06;99658.94;;;10.34;78.70
12215;BME280;6170;42.206;24.142;2022-10-16T02:16:37;99668.34;;;10.30;78.65
12215;BME280;6170;42.206;24.142;2022-10-16T02:19:05;99669.78;;;10.10;79.56
12215;BME280;6170;42.206;24.142;2022-10-16T02:21:38;99679.84;;;10.08;79.14
12215;BME280;6170;42.206;24.142;2022-10-16T02:24:13;99681.81;;;10.22;79.32
12215;BME280;6170;42.206;24.142;2022-10-16T02:26:51;99681.38;;;10.33;78.92
12215;BME280;6170;42.206;24.142;2022-10-16T02:29:22;99665.94;;;10.12;78.88
12215;BME280;6170;42.206;24.142;2022-10-16T02:31:54;99665.94;;;10.12;78.82
12215;BME280;6170;42.206;24.142;2022-10-16T02:34:24;99669.75;;;10.18;78.41
12215;BME280;6170;42.206;24.142;2022-10-16T02:36:53;99673.72;;;9.99;79.13
12215;BME280;6170;42.206;24.142;2022-10-16T02:39:21;99676.44;;;9.91;79.73
12215;BME280;6170;42.206;24.142;2022-10-16T02:41:48;99669.00;;;10.01;79.08
12215;BME280;6170;42.206;24.142;2022-10-16T02:44:15;99675.19;;;10.02;79.09
12215;BME280;6170;42.206;24.142;2022-10-16T02:46:43;99678.22;;;9.99;79.26
12215;BME280;6170;42.206;24.142;2022-10-16T02:49:11;99690.69;;;9.83;79.56
12215;BME280;6170;42.206;24.142;2022-10-16T02:51:38;99685.59;;;9.97;79.24
12215;BME280;6170;42.206;24.142;2022-10-16T02:54:05;99678.75;;;9.94;79.23
12215;BME280;6170;42.206;24.142;2022-10-16T02:56:32;99680.72;;;10.00;78.25
12215;BME280;6170;42.206;24.142;2022-10-16T02:58:59;99689.25;;;10.04;78.47
12215;BME280;6170;42.206;24.142;2022-10-16T03:01:26;99693.72;;;10.11;78.52
12215;BME280;6170;42.206;24.142;2022-10-16T03:03:53;99692.16;;;9.94;78.74
12215;BME280;6170;42.206;24.142;2022-10-16T03:06:22;99690.56;;;9.77;78.81
12215;BME280;6170;42.206;24.142;2022-10-16T03:08:49;99692.94;;;9.72;79.10
12215;BME280;6170;42.206;24.142;2022-10-16T03:11:16;99695.13;;;9.68;79.46
12215;BME280;6170;42.206;24.142;2022-10-16T03:13:43;99689.31;;;9.57;79.86
12215;BME280;6170;42.206;24.142;2022-10-16T03:16:10;99699.16;;;9.64;79.11
12215;BME280;6170;42.206;24.142;2022-10-16T03:18:37;99692.66;;;9.59;79.62
12215;BME280;6170;42.206;24.142;2022-10-16T03:21:04;99702.38;;;9.52;78.98
12215;BME280;6170;42.206;24.142;2022-10-16T03:23:33;99701.56;;;9.43;79.59
12215;BME280;6170;42.206;24.142;2022-10-16T03:26:00;99708.59;;;9.44;79.66
12215;BME280;6170;42.206;24.142;2022-10-16T03:28:27;99698.41;;;9.39;80.25
12215;BME280;6170;42.206;24.142;2022-10-16T03:30:54;99709.78;;;9.41;79.72
12215;BME280;6170;42.206;24.142;2022-10-16T03:33:21;99701.09;;;9.31;80.83
12215;BME280;6170;42.206;24.142;2022-10-16T03:35:52;99705.41;;;9.48;80.40
12215;BME280;6170;42.206;24.142;2022-10-16T03:38:20;99704.25;;;9.43;80.15
12215;BME280;6170;42.206;24.142;2022-10-16T03:40:49;99703.47;;;9.65;79.46
12215;BME280;6170;42.206;24.142;2022-10-16T03:43:16;99712.38;;;9.58;79.39
12215;BME280;6170;42.206;24.142;2022-10-16T03:45:43;99704.72;;;9.55;79.17
12215;BME280;6170;42.206;24.142;2022-10-16T03:48:10;99711.41;;;9.51;78.81
12215;BME280;6170;42.206;24.142;2022-10-16T03:50:37;99716.06;;;9.57;78.77
12215;BME280;6170;42.206;24.142;2022-10-16T03:53:05;99704.44;;;9.41;79.20
12215;BME280;6170;42.206;24.142;2022-10-16T03:55:32;99700.13;;;9.24;79.46
12215;BME280;6170;42.206;24.142;2022-10-16T03:58:01;99722.72;;;9.14;79.27
12215;BME280;6170;42.206;24.142;2022-10-16T04:00:28;99713.06;;;8.88;79.29
12215;BME280;6170;42.206;24.142;2022-10-16T04:02:55;99712.91;;;8.82;78.72
12215;BME280;6170;42.206;24.142;2022-10-16T04:05:22;99714.75;;;8.57;79.11
12215;BME280;6170;42.206;24.142;2022-10-16T04:07:49;99706.91;;;8.39;79.97
12215;BME280;6170;42.206;24.142;2022-10-16T04:10:16;99713.91;;;8.48;79.89
12215;BME280;6170;42.206;24.142;2022-10-16T04:12:43;99717.94;;;8.36;80.34
12215;BME280;6170;42.206;24.142;2022-10-16T04:15:11;99718.22;;;8.33;80.55
12215;BME280;6170;42.206;24.142;2022-10-16T04:17:39;99711.16;;;8.16;80.48
12215;BME280;6170;42.206;24.142;2022-10-16T04:20:06;99712.16;;;8.23;81.21
12215;BME280;6170;42.206;24.142;2022-10-16T04:22:33;99711.75;;;8.36;81.20
12215;BME280;6170;42.206;24.142;2022-10-16T04:25:00;99715.91;;;8.30;80.94
12215;BME280;6170;42.206;24.142;2022-10-16T04:27:28;99716.41;;;8.50;81.30
12215;BME280;6170;42.206;24.142;2022-10-16T04:29:56;99711.75;;;8.60;80.72
12215;BME280;6170;42.206;24.142;2022-10-16T04:32:25;99720.09;;;8.73;81.20
12215;BME280;6170;42.206;24.142;2022-10-16T04:34:52;99722.09;;;8.55;82.43
12215;BME280;6170;42.206;24.142;2022-10-16T04:37:23;99721.44;;;8.53;82.60
12215;BME280;6170;42.206;24.142;2022-10-16T04:39:51;99723.25;;;8.44;82.86
12215;BME280;6170;42.206;24.142;2022-10-16T04:42:18;99726.78;;;8.53;83.42
12215;BME280;6170;42.206;24.142;2022-10-16T04:44:45;99726.44;;;8.48;82.98
12215;BME280;6170;42.206;24.142;2022-10-16T04:47:13;99728.38;;;8.22;83.66
12215;BME280;6170;42.206;24.142;2022-10-16T04:49:41;99735.59;;;8.29;82.85
12215;BME280;6170;42.206;24.142;2022-10-16T04:52:08;99732.03;;;8.29;82.93
12215;BME280;6170;42.206;24.142;2022-10-16T04:54:35;99739.03;;;8.13;83.52
12215;BME280;6170;42.206;24.142;2022-10-16T04:57:03;99744.75;;;8.27;83.63
12215;BME280;6170;42.206;24.142;2022-10-16T04:59:30;99746.38;;;8.28;83.40
12215;BME280;6170;42.206;24.142;2022-10-16T05:01:57;99753.13;;;8.40;83.14
12215;BME280;6170;42.206;24.142;2022-10-16T05:04:24;99749.97;;;8.36;82.65
12215;BME280;6170;42.206;24.142;2022-10-16T05:06:53;99747.94;;;8.30;83.47
12215;BME280;6170;42.206;24.142;2022-10-16T05:09:20;99751.44;;;8.31;83.05
12215;BME280;6170;42.206;24.142;2022-10-16T05:11:47;99762.16;;;8.47;83.12
12215;BME280;6170;42.206;24.142;2022-10-16T05:14:14;99765.69;;;8.80;81.96
12215;BME280;6170;42.206;24.142;2022-10-16T05:16:41;99777.84;;;9.86;79.97
12215;BME280;6170;42.206;24.142;2022-10-16T05:19:08;99774.72;;;10.21;77.08
12215;BME280;6170;42.206;24.142;2022-10-16T05:21:35;99776.91;;;11.09;74.14
12215;BME280;6170;42.206;24.142;2022-10-16T05:24:04;99787.69;;;11.23;72.73
12215;BME280;6170;42.206;24.142;2022-10-16T05:26:31;99780.25;;;11.63;70.95
12215;BME280;6170;42.206;24.142;2022-10-16T05:28:58;99783.88;;;11.85;71.95
12215;BME280;6170;42.206;24.142;2022-10-16T05:31:25;99787.66;;;12.41;69.41
12215;BME280;6170;42.206;24.142;2022-10-16T05:33:58;99790.75;;;13.01;67.16
12215;BME280;6170;42.206;24.142;2022-10-16T05:36:25;99786.59;;;13.76;65.47
12215;BME280;6170;42.206;24.142;2022-10-16T05:38:53;99798.69;;;13.59;64.59
12215;BME280;6170;42.206;24.142;2022-10-16T05:41:21;99786.75;;;14.56;63.57
12215;BME280;6170;42.206;24.142;2022-10-16T05:43:51;99796.59;;;14.97;61.83
12215;BME280;6170;42.206;24.142;2022-10-16T05:46:18;99798.47;;;15.03;62.54
12215;BME280;6170;42.206;24.142;2022-10-16T05:48:46;99801.38;;;15.47;61.04
12215;BME280;6170;42.206;24.142;2022-10-16T05:51:14;99806.78;;;15.27;61.39
12215;BME280;6170;42.206;24.142;2022-10-16T05:53:41;99807.84;;;15.66;60.79
12215;BME280;6170;42.206;24.142;2022-10-16T05:56:10;99816.84;;;16.24;59.35
12215;BME280;6170;42.206;24.142;2022-10-16T05:58:40;99818.34;;;16.07;60.33
12215;BME280;6170;42.206;24.142;2022-10-16T06:01:10;99823.06;;;16.31;59.47
12215;BME280;6170;42.206;24.142;2022-10-16T06:03:38;99827.25;;;16.27;60.13
12215;BME280;6170;42.206;24.142;2022-10-16T06:06:09;99818.59;;;15.86;59.76
12215;BME280;6170;42.206;24.142;2022-10-16T06:08:36;99819.22;;;16.01;60.07
12215;BME280;6170;42.206;24.142;2022-10-16T06:11:04;99819.75;;;16.23;59.90
12215;BME280;6170;42.206;24.142;2022-10-16T06:13:31;99816.09;;;15.91;59.06
12215;BME280;6170;42.206;24.142;2022-10-16T06:16:00;99822.66;;;16.28;58.47
12215;BME280;6170;42.206;24.142;2022-10-16T06:18:28;99826.06;;;16.03;60.82
12215;BME280;6170;42.206;24.142;2022-10-16T06:20:56;99811.66;;;16.16;61.38
12215;BME280;6170;42.206;24.142;2022-10-16T06:23:24;99828.75;;;16.10;61.07
12215;BME280;6170;42.206;24.142;2022-10-16T06:25:51;99827.38;;;16.39;59.96
12215;BME280;6170;42.206;24.142;2022-10-16T06:28:17;99818.88;;;16.35;58.20
12215;BME280;6170;42.206;24.142;2022-10-16T06:30:44;99829.16;;;16.13;59.65
12215;BME280;6170;42.206;24.142;2022-10-16T06:33:13;99834.56;;;16.13;59.85
12215;BME280;6170;42.206;24.142;2022-10-16T06:35:40;99835.25;;;15.76;59.20
12215;BME280;6170;42.206;24.142;2022-10-16T06:38:06;99841.63;;;16.14;59.69
12215;BME280;6170;42.206;24.142;2022-10-16T06:40:33;99845.63;;;15.46;60.54
12215;BME280;6170;42.206;24.142;2022-10-16T06:43:00;99853.13;;;15.77;61.24
12215;BME280;6170;42.206;24.142;2022-10-16T06:45:27;99848.13;;;15.41;61.65
12215;BME280;6170;42.206;24.142;2022-10-16T06:47:54;99863.75;;;15.79;61.04
12215;BME280;6170;42.206;24.142;2022-10-16T06:50:22;99862.31;;;15.56;61.87
12215;BME280;6170;42.206;24.142;2022-10-16T06:52:49;99856.47;;;15.72;61.96
12215;BME280;6170;42.206;24.142;2022-10-16T06:55:16;99859.13;;;15.99;61.01
12215;BME280;6170;42.206;24.142;2022-10-16T06:57:43;99859.81;;;15.75;61.86
12215;BME280;6170;42.206;24.142;2022-10-16T07:00:11;99853.56;;;15.61;61.57
12215;BME280;6170;42.206;24.142;2022-10-16T07:02:38;99859.28;;;16.17;61.43
12215;BME280;6170;42.206;24.142;2022-10-16T07:05:05;99859.56;;;15.89;61.83
12215;BME280;6170;42.206;24.142;2022-10-16T07:07:34;99862.66;;;15.99;61.46
12215;BME280;6170;42.206;24.142;2022-10-16T07:10:00;99860.97;;;16.11;60.79
12215;BME280;6170;42.206;24.142;2022-10-16T07:12:27;99860.44;;;16.54;61.68
12215;BME280;6170;42.206;24.142;2022-10-16T07:14:54;99869.56;;;16.66;61.19
12215;BME280;6170;42.206;24.142;2022-10-16T07:17:21;99867.50;;;16.55;59.04
12215;BME280;6170;42.206;24.142;2022-10-16T07:19:48;99877.75;;;16.33;61.49
12215;BME280;6170;42.206;24.142;2022-10-16T07:22:18;99871.91;;;16.49;60.63
12215;BME280;6170;42.206;24.142;2022-10-16T07:24:46;99874.66;;;16.36;60.84
12215;BME280;6170;42.206;24.142;2022-10-16T07:27:13;99861.59;;;17.16;59.63
12215;BME280;6170;42.206;24.142;2022-10-16T07:29:41;99868.88;;;17.15;58.90
12215;BME280;6170;42.206;24.142;2022-10-16T07:32:08;99872.47;;;16.65;59.89
12215;BME280;6170;42.206;24.142;2022-10-16T07:34:35;99865.97;;;17.17;59.76
12215;BME280;6170;42.206;24.142;2022-10-16T07:37:02;99862.38;;;17.97;58.37
12215;BME280;6170;42.206;24.142;2022-10-16T07:39:29;99867.53;;;17.80;57.67
12215;BME280;6170;42.206;24.142;2022-10-16T07:41:57;99868.63;;;17.98;57.81
12215;BME280;6170;42.206;24.142;2022-10-16T07:44:24;99868.00;;;17.77;57.64
12215;BME280;6170;42.206;24.142;2022-10-16T07:46:51;99865.50;;;18.37;56.24
12215;BME280;6170;42.206;24.142;2022-10-16T07:49:18;99863.84;;;18.36;57.53
12215;BME280;6170;42.206;24.142;2022-10-16T07:51:45;99858.97;;;18.93;56.67
12215;BME280;6170;42.206;24.142;2022-10-16T07:54:12;99865.41;;;19.10;56.47
12215;BME280;6170;42.206;24.142;2022-10-16T07:56:38;99870.22;;;19.38;55.84
12215;BME280;6170;42.206;24.142;2022-10-16T07:59:07;99876.88;;;19.12;54.13
12215;BME280;6170;42.206;24.142;2022-10-16T08:01:34;99869.88;;;18.74;56.36
12215;BME280;6170;42.206;24.142;2022-10-16T08:04:00;99865.06;;;18.22;55.80
12215;BME280;6170;42.206;24.142;2022-10-16T08:06:27;99875.91;;;18.22;57.08
12215;BME280;6170;42.206;24.142;2022-10-16T08:08:55;99875.38;;;18.31;58.77
12215;BME280;6170;42.206;24.142;2022-10-16T08:11:21;99873.66;;;18.55;56.95
12215;BME280;6170;42.206;24.142;2022-10-16T08:13:49;99876.88;;;17.84;57.05
12215;BME280;6170;42.206;24.142;2022-10-16T08:16:17;99871.38;;;18.16;58.73
12215;BME280;6170;42.206;24.142;2022-10-16T08:18:44;99863.81;;;17.50;57.46
12215;BME280;6170;42.206;24.142;2022-10-16T08:21:13;99866.03;;;17.84;57.64
12215;BME280;6170;42.206;24.142;2022-10-16T08:23:40;99863.66;;;17.94;59.43
12215;BME280;6170;42.206;24.142;2022-10-16T08:26:07;99861.69;;;18.63;57.98
12215;BME280;6170;42.206;24.142;2022-10-16T08:28:35;99859.66;;;18.58;59.30
12215;BME280;6170;42.206;24.142;2022-10-16T08:31:07;99864.53;;;18.31;55.47
12215;BME280;6170;42.206;24.142;2022-10-16T08:33:36;99866.78;;;18.71;56.96
12215;BME280;6170;42.206;24.142;2022-10-16T08:36:05;99860.59;;;18.46;57.90
12215;BME280;6170;42.206;24.142;2022-10-16T08:38:32;99868.03;;;17.71;58.10
12215;BME280;6170;42.206;24.142;2022-10-16T08:41:17;99865.25;;;17.59;59.74
12215;BME280;6170;42.206;24.142;2022-10-16T08:44:11;99859.78;;;18.45;57.08
12215;BME280;6170;42.206;24.142;2022-10-16T08:46:51;99851.41;;;17.92;59.01
12215;BME280;6170;42.206;24.142;2022-10-16T08:49:24;99854.78;;;17.63;57.80
12215;BME280;6170;42.206;24.142;2022-10-16T08:51:51;99859.06;;;17.70;58.00
12215;BME280;6170;42.206;24.142;2022-10-16T08:54:25;99852.59;;;18.69;57.57
12215;BME280;6170;42.206;24.142;2022-10-16T08:56:55;99858.81;;;19.17;57.79
12215;BME280;6170;42.206;24.142;2022-10-16T08:59:22;99858.13;;;19.22;57.70
12215;BME280;6170;42.206;24.142;2022-10-16T09:01:50;99851.16;;;19.91;54.40
12215;BME280;6170;42.206;24.142;2022-10-16T09:04:48;99867.66;;;19.43;54.44
12215;BME280;6170;42.206;24.142;2022-10-16T09:07:26;99855.97;;;19.54;55.30
12215;BME280;6170;42.206;24.142;2022-10-16T09:10:06;99865.31;;;19.46;54.97
12215;BME280;6170;42.206;24.142;2022-10-16T09:12:38;99859.31;;;19.56;54.48
12215;BME280;6170;42.206;24.142;2022-10-16T09:15:17;99850.56;;;19.89;54.19
12215;BME280;6170;42.206;24.142;2022-10-16T09:17:54;99853.28;;;19.89;53.45
12215;BME280;6170;42.206;24.142;2022-10-16T09:20:36;99846.19;;;19.99;55.03
12215;BME280;6170;42.206;24.142;2022-10-16T09:23:15;99842.75;;;19.81;53.44
12215;BME280;6170;42.206;24.142;2022-10-16T09:25:46;99841.53;;;20.23;52.75
12215;BME280;6170;42.206;24.142;2022-10-16T09:28:15;99842.25;;;19.49;52.91
12215;BME280;6170;42.206;24.142;2022-10-16T09:30:42;99839.56;;;20.07;52.17
12215;BME280;6170;42.206;24.142;2022-10-16T09:33:10;99837.41;;;20.32;54.87
12215;BME280;6170;42.206;24.142;2022-10-16T09:35:40;99834.13;;;19.95;51.43
12215;BME280;6170;42.206;24.142;2022-10-16T09:38:09;99836.25;;;19.82;53.09
12215;BME280;6170;42.206;24.142;2022-10-16T09:40:46;99829.81;;;20.23;52.88
12215;BME280;6170;42.206;24.142;2022-10-16T09:43:20;99827.63;;;20.31;52.37
12215;BME280;6170;42.206;24.142;2022-10-16T09:45:57;99827.06;;;20.57;50.63
12215;BME280;6170;42.206;24.142;2022-10-16T09:48:28;99821.41;;;20.76;51.66
12215;BME280;6170;42.206;24.142;2022-10-16T09:51:00;99825.69;;;20.43;52.21
12215;BME280;6170;42.206;24.142;2022-10-16T09:53:39;99827.97;;;20.11;52.22
12215;BME280;6170;42.206;24.142;2022-10-16T09:56:06;99818.19;;;20.50;51.46
12215;BME280;6170;42.206;24.142;2022-10-16T09:58:33;99827.34;;;20.73;51.39
12215;BME280;6170;42.206;24.142;2022-10-16T10:01:00;99827.84;;;20.70;51.46
12215;BME280;6170;42.206;24.142;2022-10-16T10:03:38;99815.66;;;20.09;50.37
12215;BME280;6170;42.206;24.142;2022-10-16T10:06:17;99817.53;;;20.20;50.30
12215;BME280;6170;42.206;24.142;2022-10-16T10:08:59;99820.75;;;19.94;49.53
12215;BME280;6170;42.206;24.142;2022-10-16T10:11:42;99816.13;;;20.17;49.94
12215;BME280;6170;42.206;24.142;2022-10-16T10:14:19;99799.19;;;20.67;49.92
12215;BME280;6170;42.206;24.142;2022-10-16T10:16:47;99806.63;;;20.20;48.18
12215;BME280;6170;42.206;24.142;2022-10-16T10:19:16;99801.38;;;20.82;47.98
12215;BME280;6170;42.206;24.142;2022-10-16T10:21:46;99805.00;;;21.16;46.98
12215;BME280;6170;42.206;24.142;2022-10-16T10:24:14;99800.75;;;20.91;47.50
12215;BME280;6170;42.206;24.142;2022-10-16T10:26:49;99800.56;;;21.26;48.28
12215;BME280;6170;42.206;24.142;2022-10-16T10:29:30;99791.41;;;21.87;48.53
12215;BME280;6170;42.206;24.142;2022-10-16T10:32:09;99791.84;;;22.39;47.25
12215;BME280;6170;42.206;24.142;2022-10-16T10:34:51;99779.34;;;22.00;47.00
12215;BME280;6170;42.206;24.142;2022-10-16T10:37:36;99788.97;;;21.69;46.59
12215;BME280;6170;42.206;24.142;2022-10-16T10:40:15;99770.91;;;21.63;46.79
12215;BME280;6170;42.206;24.142;2022-10-16T10:42:53;99775.59;;;21.34;47.62
12215;BME280;6170;42.206;24.142;2022-10-16T10:45:26;99761.41;;;20.71;47.43
12215;BME280;6170;42.206;24.142;2022-10-16T10:48:03;99761.88;;;20.68;48.34
12215;BME280;6170;42.206;24.142;2022-10-16T10:50:38;99765.66;;;21.12;49.63
12215;BME280;6170;42.206;24.142;2022-10-16T10:53:18;99759.34;;;21.39;48.34
12215;BME280;6170;42.206;24.142;2022-10-16T10:55:52;99752.22;;;21.05;48.57
12215;BME280;6170;42.206;24.142;2022-10-16T10:58:50;99754.72;;;21.23;49.02
12215;BME280;6170;42.206;24.142;2022-10-16T11:01:26;99749.53;;;21.93;48.78
12215;BME280;6170;42.206;24.142;2022-10-16T11:04:10;99749.38;;;22.27;45.91
12215;BME280;6170;42.206;24.142;2022-10-16T11:06:44;99744.25;;;22.30;46.15
12215;BME280;6170;42.206;24.142;2022-10-16T11:09:17;99739.97;;;22.61;45.61
12215;BME280;6170;42.206;24.142;2022-10-16T11:11:49;99742.50;;;21.64;46.80
12215;BME280;6170;42.206;24.142;2022-10-16T11:14:20;99734.69;;;21.89;45.74
12215;BME280;6170;42.206;24.142;2022-10-16T11:16:52;99745.44;;;22.18;47.40
12215;BME280;6170;42.206;24.142;2022-10-16T11:19:28;99733.34;;;22.30;44.57
12215;BME280;6170;42.206;24.142;2022-10-16T11:22:03;99728.94;;;21.69;45.03
12215;BME280;6170;42.206;24.142;2022-10-16T11:24:41;99732.56;;;21.36;45.85
12215;BME280;6170;42.206;24.142;2022-10-16T11:27:14;99737.19;;;21.36;46.92
12215;BME280;6170;42.206;24.142;2022-10-16T11:29:48;99723.66;;;21.79;46.71
12215;BME280;6170;42.206;24.142;2022-10-16T11:32:19;99740.59;;;21.81;46.33
12215;BME280;6170;42.206;24.142;2022-10-16T11:34:51;99718.38;;;21.73;46.36
12215;BME280;6170;42.206;24.142;2022-10-16T11:37:24;99728.59;;;21.44;46.35
12215;BME280;6170;42.206;24.142;2022-10-16T11:39:59;99726.25;;;21.02;45.90
12215;BME280;6170;42.206;24.142;2022-10-16T11:42:36;99726.19;;;20.97;45.39
12215;BME280;6170;42.206;24.142;2022-10-16T11:45:15;99721.63;;;21.03;46.41
12215;BME280;6170;42.206;24.142;2022-10-16T11:47:57;99724.34;;;21.15;45.15
12215;BME280;6170;42.206;24.142;2022-10-16T11:50:31;99725.47;;;21.35;46.24
12215;BME280;6170;42.206;24.142;2022-10-16T11:53:04;99724.38;;;21.53;45.48
12215;BME280;6170;42.206;24.142;2022-10-16T11:55:39;99710.59;;;21.81;45.71
12215;BME280;6170;42.206;24.142;2022-10-16T11:58:09;99707.50;;;21.56;44.47
12215;BME280;6170;42.206;24.142;2022-10-16T12:00:43;99698.84;;;21.09;45.18
12215;BME280;6170;42.206;24.142;2022-10-16T12:03:18;99711.88;;;21.07;47.09
12215;BME280;6170;42.206;24.142;2022-10-16T12:06:00;99717.31;;;20.57;46.70
12215;BME280;6170;42.206;24.142;2022-10-16T12:08:33;99723.31;;;21.21;46.09
12215;BME280;6170;42.206;24.142;2022-10-16T12:11:09;99716.19;;;20.86;46.56
12215;BME280;6170;42.206;24.142;2022-10-16T12:13:38;99720.84;;;21.74;45.59
12215;BME280;6170;42.206;24.142;2022-10-16T12:16:22;99719.16;;;21.51;43.72
12215;BME280;6170;42.206;24.142;2022-10-16T12:18:49;99718.53;;;21.28;43.98
12215;BME280;6170;42.206;24.142;2022-10-16T12:21:31;99716.16;;;21.15;44.36
12215;BME280;6170;42.206;24.142;2022-10-16T12:24:00;99726.03;;;20.59;44.85
12215;BME280;6170;42.206;24.142;2022-10-16T12:26:32;99730.00;;;20.51;45.53
12215;BME280;6170;42.206;24.142;2022-10-16T12:29:13;99731.78;;;20.06;45.46
12215;BME280;6170;42.206;24.142;2022-10-16T12:31:45;99724.19;;;20.31;45.07
12215;BME280;6170;42.206;24.142;2022-10-16T12:34:23;99723.91;;;20.33;44.13
12215;BME280;6170;42.206;24.142;2022-10-16T12:36:53;99724.69;;;20.45;43.53
12215;BME280;6170;42.206;24.142;2022-10-16T12:39:22;99726.59;;;20.89;43.43
12215;BME280;6170;42.206;24.142;2022-10-16T12:42:02;99722.88;;;21.12;43.60
12215;BME280;6170;42.206;24.142;2022-10-16T12:44:34;99725.34;;;20.80;44.22
12215;BME280;6170;42.206;24.142;2022-10-16T12:47:02;99727.13;;;20.30;43.91
12215;BME280;6170;42.206;24.142;2022-10-16T12:49:31;99722.03;;;20.33;42.92
12215;BME280;6170;42.206;24.142;2022-10-16T12:51:58;99728.28;;;20.34;44.11
12215;BME280;6170;42.206;24.142;2022-10-16T12:54:28;99727.16;;;20.46;44.63
12215;BME280;6170;42.206;24.142;2022-10-16T12:57:18;99734.41;;;20.41;44.04
12215;BME280;6170;42.206;24.142;2022-10-16T12:59:53;99731.03;;;20.34;45.92
12215;BME280;6170;42.206;24.142;2022-10-16T13:02:51;99727.00;;;20.25;44.16
12215;BME280;6170;42.206;24.142;2022-10-16T13:05:34;99727.81;;;20.25;44.95
12215;BME280;6170;42.206;24.142;2022-10-16T13:08:23;99733.81;;;19.87;45.53
12215;BME280;6170;42.206;24.142;2022-10-16T13:11:01;99732.56;;;19.78;46.01
12215;BME280;6170;42.206;24.142;2022-10-16T13:13:49;99741.84;;;20.05;45.78
12215;BME280;6170;42.206;24.142;2022-10-16T13:16:26;99734.69;;;19.76;46.76
12215;BME280;6170;42.206;24.142;2022-10-16T13:19:06;99732.44;;;19.73;47.33
12215;BME280;6170;42.206;24.142;2022-10-16T13:21:43;99734.47;;;19.78;47.28